x

Portland 12 Nm Southeast Of Portland,me (44007) Wave Buoy

10:50pm - Wed 10th Feb 2016 All times are EST. -5 hours from GMT.

  • Sig Wave height 3.6ft
  • Swell Direction
  • Peak Period 10s
  • Average Period 5s
  • Wind
    22mph, 25mph gusts
  • Sea Temp 40°f
  • 空気 Temp 34°f
  • Sea Pressure 1000.3mb
  • Portland 12 Nm Southeast Of Portland,me
  • Portland 12 Nm Southeast Of Portland,me

More Historic Weather Station data

Upgrade to MSW Pro to gain access to the past 30 days of data for over 8000 Wavebouys and Weather Stations around the globe.

Join Pro

Comparision Forecast

View Surf forecast
   
Wed 02/10 10:50pm 3.5ft 10s 5s 22 25 mph 1000.3mb 40f 34f
9:50pm 3.5ft 12s 6s 20 22 mph 1000.5mb 40f 35f
8:50pm 4.5ft 12s 7s 16 20 mph 1001.2mb 40f 35f
7:50pm 4ft 11s 7s 18 20 mph 1001.2mb 40f 35f
6:50pm 4ft 12s 7s 13 16 mph 1001.4mb 40f 35f
5:50pm 4.5ft 11s 7s 13 16 mph 1001.2mb 40f 35f
4:50pm 4.5ft 11s 7s 11 13 mph 1000.7mb 41f 35f
3:50pm 3.5ft 11s 6s 13 16 mph 1000.3mb 41f 34f
2:50pm 3.5ft 11s 6s 13 16 mph 1000mb 41f 34f
1:50pm 3ft 11s 6s 13 16 mph 999.9mb 41f 33f
12:50pm 3.5ft 11s 6s 13 16 mph 1000.4mb 41f 33f
11:50am 3.5ft 11s 6s 13 18 mph 1001.2mb 41f 32f
10:50am 3.5ft 11s 6s 16 18 mph 1002mb 41f 31f
9:50am 3.5ft 11s 6s 13 16 mph 1002.4mb 41f 31f
8:50am 3.5ft 10s 7s 13 16 mph 1002.8mb 40f 30f
7:50am 4ft 10s 8s 11 16 mph 1003mb 40f 29f
6:50am 4.5ft 11s 9s 13 16 mph 1002.6mb 40f 31f
5:50am 5ft 10s 9s 7 9 mph 1002.3mb 40f 30f
4:50am 4.5ft 12s 9s 2 7 mph 1002mb 40f 29f
3:50am 5ft 11s 9s 2 4 mph 1002.2mb 40f 28f
2:50am 5ft 13s 9s 2 4 mph 1002.3mb 40f 26f
1:50am 5ft 11s 9s 2 4 mph 1002.5mb 41f 26f
12:50am 4.5ft 12s 8s 7 9 mph 1002.2mb 40f 26f
Tue 02/09 11:50pm 4.5ft 13s 8s 7 9 mph 1002.5mb 41f 25f
10:50pm 5ft 13s 8s 4 7 mph 1002.6mb 41f 25f
9:50pm 5ft 13s 8s 4 9 mph 1003.2mb 40f 25f
8:50pm 5ft 14s 8s 7 9 mph 1002.8mb 40f 25f
7:50pm 6.5ft 14s 9s 7 11 mph 1003.3mb 41f 25f
6:50pm 7ft 14s 9s 11 16 mph 1003.4mb 41f 26f
5:50pm 8ft 11s 9s 9 13 mph 1003.4mb 41f 26f
4:50pm 8ft 13s 10s 9 13 mph 1003mb 41f 26f
3:50pm 9ft 13s 10s 13 20 mph 1002.1mb 41f 26f
2:50pm 9ft 13s 10s 11 16 mph 1002.2mb 41f 25f
1:50pm 8.5ft 13s 10s 16 20 mph 1002.3mb 41f 24f
12:50pm 9ft 13s 10s 11 18 mph 1003.7mb 41f 24f
11:50am 9.5ft 13s 10s 11 18 mph 1004.2mb 41f 23f
10:50am 9ft 15s 9s 11 16 mph 1006mb 41f 23f
9:50am 10ft 14s 9s 7 11 mph 1006.7mb 40f 22f
8:50am 9.5ft 13s 9s 9 13 mph 1007.3mb 40f 21f
7:50am 10ft 13s 9s 18 22 mph 1005.2mb 40f 22f
6:50am 12ft 13s 9s 13 18 mph 1007.1mb 40f 22f
5:50am 11.5ft 14s 9s 13 18 mph 1007.4mb 41f 22f
4:50am 12ft 13s 9s 18 22 mph 1007.5mb 41f 22f
3:50am 13ft 13s 9s 20 27 mph 1007.3mb 41f 22f
2:50am 11ft 14s 8s 22 27 mph 1007.5mb 41f 22f
1:50am 11ft 12s 8s 27 34 mph 1007.4mb 41f 22f
12:50am 11.5ft 12s 8s 25 31 mph 1007.8mb 41f 22f
Mon 02/08 11:50pm 10ft 12s 7s 25 31 mph 1008.2mb 41f 23f
10:50pm 12ft 11s 7s 27 34 mph 1008.1mb 41f 22f
9:50pm 10ft 11s 7s 29 36 mph 1008.2mb 41f 22f
8:50pm 12.5ft 11s 8s 29 36 mph 1008.5mb 41f 22f
7:50pm 10ft 10s 7s 29 36 mph 1008.6mb 41f 22f
6:50pm 10.5ft 10s 7s 29 36 mph 1008.1mb 41f 22f
5:50pm 11ft 10s 7s 31 40 mph 1007.7mb 41f 23f
4:50pm 10.5ft 10s 6s 34 43 mph 1007.2mb 41f 23f
3:50pm 9.5ft 10s 6s 34 40 mph 1007.5mb 41f 23f
2:50pm 9ft 9s 6s 34 40 mph 1007.9mb 41f 22f
1:50pm 8ft 9s 6s 34 40 mph 1008.5mb 41f 22f
12:50pm 8.5ft 9s 6s 34 40 mph 1009.4mb 42f 21f
11:50am 9ft 9s 6s 29 36 mph 1011.5mb 42f 21f
10:50am 8ft 9s 6s 31 38 mph 1012.1mb 42f 21f
9:50am 8.5ft 8s 6s 34 38 mph 1012.1mb 42f 20f
8:50am 8.5ft 8s 6s 31 38 mph 1013.3mb 42f 20f
7:50am 8ft 8s 6s 29 36 mph 1014.8mb 42f 20f
6:50am 7.5ft 7s 5s 29 36 mph 1014.8mb 42f 21f
5:50am 7.5ft 7s 5s 31 38 mph 1014.7mb 43f 23f
4:50am 6.5ft 7s 5s 29 36 mph 1016.1mb 42f 24f
3:50am 6.5ft 6s 5s 29 34 mph 1017mb 42f 24f
2:50am 6ft 6s 5s 27 31 mph 1017.6mb 42f 27f
1:50am 5.5ft 6s 5s 25 31 mph 1019mb 42f 29f
12:50am 5ft 6s 5s 27 34 mph 1019.3mb 42f 32f
Sun 02/07 11:50pm 4.5ft 5s 4s 27 31 mph 1019.7mb 42f 33f
10:50pm 4ft 4s 4s 27 31 mph 1019.8mb 42f 35f
9:50pm 3ft 3s 4s 27 31 mph 1019.7mb 42f 37f
8:50pm 2.5ft 11s 4s 18 22 mph 1020.9mb 42f 39f
7:50pm 2ft 9s 4s 18 20 mph 1020.6mb 42f 40f
6:50pm 1.6ft 10s 6s 16 18 mph 1021.2mb 42f 40f
5:50pm 1.6ft 9s 6s 13 16 mph 1021mb 42f 40f
4:50pm 1.6ft 9s 6s 7 9 mph 1020.7mb 42f 40f
3:50pm 1.6ft 9s 5s 7 9 mph 1020.9mb 42f 40f
2:50pm 2ft 10s 5s 4 7 mph 1020.5mb 42f 41f
1:50pm 2ft 5s 5s 2 4 mph 1020.7mb 42f 41f
12:50pm 2.5ft 5s 4s 9
mph
1020.8mb 42f 40f
11:50am 2.5ft 5s 4s 11 13 mph 1019.8mb 42f 39f
10:50am 2.5ft 5s 4s 16 18 mph 1020.3mb 42f 38f
9:50am 3ft 5s 4s 16 18 mph 1020mb 41f 37f
8:50am 3ft 6s 5s 16 18 mph 1019.8mb 41f 35f
7:50am 3.5ft 5s 5s 16 18 mph 1019.7mb 41f 33f
6:50am 3.5ft 5s 5s 18 20 mph 1019.7mb 41f 33f
5:50am 4ft 5s 4s 22 25 mph 1019.2mb 42f 34f
4:50am 4ft 6s 4s 25 27 mph 1019.2mb 42f 35f